sensor_id;sensor_type;location;lat;lon;timestamp;P1;durP1;ratioP1;P2;durP2;ratioP2
65831;SDS011;52593;42.648;23.332;2024-01-07T00:01:00;23.13;;;8.97;;
65831;SDS011;52593;42.648;23.332;2024-01-07T00:03:25;21.33;;;8.37;;
65831;SDS011;52593;42.648;23.332;2024-01-07T00:05:51;22.07;;;8.50;;
65831;SDS011;52593;42.648;23.332;2024-01-07T00:08:16;21.23;;;8.18;;
65831;SDS011;52593;42.648;23.332;2024-01-07T00:10:42;23.27;;;8.47;;
65831;SDS011;52593;42.648;23.332;2024-01-07T00:13:07;24.00;;;9.23;;
65831;SDS011;52593;42.648;23.332;2024-01-07T00:15:33;19.60;;;8.20;;
65831;SDS011;52593;42.648;23.332;2024-01-07T00:17:58;23.30;;;8.70;;
65831;SDS011;52593;42.648;23.332;2024-01-07T00:20:24;22.93;;;8.90;;
65831;SDS011;52593;42.648;23.332;2024-01-07T00:22:49;21.97;;;9.10;;
65831;SDS011;52593;42.648;23.332;2024-01-07T00:25:15;17.57;;;8.03;;
65831;SDS011;52593;42.648;23.332;2024-01-07T00:27:40;20.38;;;8.30;;
65831;SDS011;52593;42.648;23.332;2024-01-07T00:30:06;18.77;;;8.03;;
65831;SDS011;52593;42.648;23.332;2024-01-07T00:32:31;16.17;;;7.10;;
65831;SDS011;52593;42.648;23.332;2024-01-07T00:34:57;24.23;;;8.33;;
65831;SDS011;52593;42.648;23.332;2024-01-07T00:37:22;18.50;;;8.17;;
65831;SDS011;52593;42.648;23.332;2024-01-07T00:39:48;20.85;;;8.10;;
65831;SDS011;52593;42.648;23.332;2024-01-07T00:42:13;22.67;;;7.70;;
65831;SDS011;52593;42.648;23.332;2024-01-07T00:44:39;20.33;;;8.03;;
65831;SDS011;52593;42.648;23.332;2024-01-07T00:47:04;19.83;;;8.20;;
65831;SDS011;52593;42.648;23.332;2024-01-07T00:49:30;19.27;;;7.57;;
65831;SDS011;52593;42.648;23.332;2024-01-07T00:51:56;22.27;;;9.90;;
65831;SDS011;52593;42.648;23.332;2024-01-07T00:54:21;23.03;;;9.60;;
65831;SDS011;52593;42.648;23.332;2024-01-07T00:56:47;23.97;;;9.10;;
65831;SDS011;52593;42.648;23.332;2024-01-07T00:59:12;20.97;;;8.20;;
65831;SDS011;52593;42.648;23.332;2024-01-07T01:01:38;25.88;;;8.43;;
65831;SDS011;52593;42.648;23.332;2024-01-07T01:04:03;20.47;;;8.33;;
65831;SDS011;52593;42.648;23.332;2024-01-07T01:06:29;22.77;;;9.13;;
65831;SDS011;52593;42.648;23.332;2024-01-07T01:08:54;26.08;;;9.25;;
65831;SDS011;52593;42.648;23.332;2024-01-07T01:11:20;21.53;;;9.20;;
65831;SDS011;52593;42.648;23.332;2024-01-07T01:13:45;21.10;;;8.83;;
65831;SDS011;52593;42.648;23.332;2024-01-07T01:16:11;22.23;;;8.95;;
65831;SDS011;52593;42.648;23.332;2024-01-07T01:18:36;21.60;;;8.90;;
65831;SDS011;52593;42.648;23.332;2024-01-07T01:21:02;22.80;;;9.73;;
65831;SDS011;52593;42.648;23.332;2024-01-07T01:23:27;24.92;;;9.38;;
65831;SDS011;52593;42.648;23.332;2024-01-07T01:25:53;23.00;;;9.27;;
65831;SDS011;52593;42.648;23.332;2024-01-07T01:28:18;21.73;;;8.97;;
65831;SDS011;52593;42.648;23.332;2024-01-07T01:30:43;22.10;;;8.43;;
65831;SDS011;52593;42.648;23.332;2024-01-07T01:33:09;25.67;;;9.50;;
65831;SDS011;52593;42.648;23.332;2024-01-07T01:35:34;21.87;;;9.30;;
65831;SDS011;52593;42.648;23.332;2024-01-07T01:38:00;25.57;;;9.80;;
65831;SDS011;52593;42.648;23.332;2024-01-07T01:40:25;23.30;;;9.23;;
65831;SDS011;52593;42.648;23.332;2024-01-07T01:42:51;23.10;;;9.20;;
65831;SDS011;52593;42.648;23.332;2024-01-07T01:45:16;22.70;;;9.77;;
65831;SDS011;52593;42.648;23.332;2024-01-07T01:47:42;25.23;;;9.25;;
65831;SDS011;52593;42.648;23.332;2024-01-07T01:50:08;21.47;;;9.57;;
65831;SDS011;52593;42.648;23.332;2024-01-07T01:52:36;23.05;;;8.98;;
65831;SDS011;52593;42.648;23.332;2024-01-07T01:55:01;23.55;;;9.82;;
65831;SDS011;52593;42.648;23.332;2024-01-07T01:57:28;26.33;;;10.17;;
65831;SDS011;52593;42.648;23.332;2024-01-07T01:59:58;21.48;;;9.48;;
65831;SDS011;52593;42.648;23.332;2024-01-07T02:02:30;20.60;;;9.15;;
65831;SDS011;52593;42.648;23.332;2024-01-07T02:05:00;20.90;;;9.27;;
65831;SDS011;52593;42.648;23.332;2024-01-07T02:07:26;19.67;;;8.87;;
65831;SDS011;52593;42.648;23.332;2024-01-07T02:09:53;21.90;;;9.02;;
65831;SDS011;52593;42.648;23.332;2024-01-07T02:12:18;18.63;;;7.88;;
65831;SDS011;52593;42.648;23.332;2024-01-07T02:14:44;22.37;;;8.93;;
65831;SDS011;52593;42.648;23.332;2024-01-07T02:17:09;24.63;;;9.30;;
65831;SDS011;52593;42.648;23.332;2024-01-07T02:19:35;23.20;;;9.40;;
65831;SDS011;52593;42.648;23.332;2024-01-07T02:22:00;22.40;;;8.88;;
65831;SDS011;52593;42.648;23.332;2024-01-07T02:24:26;21.53;;;8.90;;
65831;SDS011;52593;42.648;23.332;2024-01-07T02:26:51;16.00;;;6.47;;
65831;SDS011;52593;42.648;23.332;2024-01-07T02:29:17;11.07;;;4.22;;
65831;SDS011;52593;42.648;23.332;2024-01-07T02:31:42;11.00;;;4.00;;
65831;SDS011;52593;42.648;23.332;2024-01-07T02:34:11;6.67;;;2.73;;
65831;SDS011;52593;42.648;23.332;2024-01-07T02:36:36;8.95;;;2.97;;
65831;SDS011;52593;42.648;23.332;2024-01-07T02:39:02;8.53;;;3.13;;
65831;SDS011;52593;42.648;23.332;2024-01-07T02:41:27;7.00;;;2.83;;
65831;SDS011;52593;42.648;23.332;2024-01-07T02:43:53;6.60;;;2.30;;
65831;SDS011;52593;42.648;23.332;2024-01-07T02:46:19;6.83;;;2.33;;
65831;SDS011;52593;42.648;23.332;2024-01-07T02:48:45;6.43;;;2.60;;
65831;SDS011;52593;42.648;23.332;2024-01-07T02:51:10;9.93;;;2.80;;
65831;SDS011;52593;42.648;23.332;2024-01-07T02:53:36;7.23;;;2.23;;
65831;SDS011;52593;42.648;23.332;2024-01-07T02:56:01;8.03;;;2.40;;
65831;SDS011;52593;42.648;23.332;2024-01-07T02:58:27;6.03;;;2.10;;
65831;SDS011;52593;42.648;23.332;2024-01-07T03:00:52;7.05;;;2.42;;
65831;SDS011;52593;42.648;23.332;2024-01-07T03:03:18;7.30;;;2.43;;
65831;SDS011;52593;42.648;23.332;2024-01-07T03:05:43;6.37;;;2.40;;
65831;SDS011;52593;42.648;23.332;2024-01-07T03:08:09;7.63;;;2.60;;
65831;SDS011;52593;42.648;23.332;2024-01-07T03:10:34;6.83;;;2.53;;
65831;SDS011;52593;42.648;23.332;2024-01-07T03:13:00;7.93;;;2.60;;
65831;SDS011;52593;42.648;23.332;2024-01-07T03:15:26;7.45;;;2.38;;
65831;SDS011;52593;42.648;23.332;2024-01-07T03:17:52;7.53;;;2.95;;
65831;SDS011;52593;42.648;23.332;2024-01-07T03:20:17;7.90;;;2.80;;
65831;SDS011;52593;42.648;23.332;2024-01-07T03:22:43;7.17;;;2.63;;
65831;SDS011;52593;42.648;23.332;2024-01-07T03:25:08;6.75;;;2.50;;
65831;SDS011;52593;42.648;23.332;2024-01-07T03:27:34;6.10;;;2.70;;
65831;SDS011;52593;42.648;23.332;2024-01-07T03:29:59;5.77;;;2.37;;
65831;SDS011;52593;42.648;23.332;2024-01-07T03:32:25;15.82;;;5.65;;
65831;SDS011;52593;42.648;23.332;2024-01-07T03:34:50;15.97;;;5.63;;
65831;SDS011;52593;42.648;23.332;2024-01-07T03:37:15;12.33;;;5.57;;
65831;SDS011;52593;42.648;23.332;2024-01-07T03:39:42;15.30;;;6.57;;
65831;SDS011;52593;42.648;23.332;2024-01-07T03:42:09;14.50;;;5.65;;
65831;SDS011;52593;42.648;23.332;2024-01-07T03:44:39;15.30;;;5.95;;
65831;SDS011;52593;42.648;23.332;2024-01-07T03:47:05;16.00;;;6.43;;
65831;SDS011;52593;42.648;23.332;2024-01-07T03:49:31;15.98;;;6.20;;
65831;SDS011;52593;42.648;23.332;2024-01-07T03:51:57;16.33;;;6.22;;
65831;SDS011;52593;42.648;23.332;2024-01-07T03:54:22;15.30;;;6.40;;
65831;SDS011;52593;42.648;23.332;2024-01-07T03:56:48;15.17;;;6.33;;
65831;SDS011;52593;42.648;23.332;2024-01-07T03:59:13;13.80;;;5.73;;
65831;SDS011;52593;42.648;23.332;2024-01-07T04:01:39;14.77;;;6.10;;
65831;SDS011;52593;42.648;23.332;2024-01-07T04:04:04;12.40;;;5.97;;
65831;SDS011;52593;42.648;23.332;2024-01-07T04:06:30;15.17;;;5.97;;
65831;SDS011;52593;42.648;23.332;2024-01-07T04:08:55;12.40;;;5.63;;
65831;SDS011;52593;42.648;23.332;2024-01-07T04:11:21;16.10;;;5.40;;
65831;SDS011;52593;42.648;23.332;2024-01-07T04:13:46;16.20;;;6.17;;
65831;SDS011;52593;42.648;23.332;2024-01-07T04:16:15;14.13;;;5.90;;
65831;SDS011;52593;42.648;23.332;2024-01-07T04:18:42;14.88;;;5.65;;
65831;SDS011;52593;42.648;23.332;2024-01-07T04:21:09;13.90;;;5.60;;
65831;SDS011;52593;42.648;23.332;2024-01-07T04:23:35;13.80;;;5.10;;
65831;SDS011;52593;42.648;23.332;2024-01-07T04:26:00;13.53;;;5.43;;
65831;SDS011;52593;42.648;23.332;2024-01-07T04:28:26;11.30;;;5.17;;
65831;SDS011;52593;42.648;23.332;2024-01-07T04:30:51;12.33;;;5.40;;
65831;SDS011;52593;42.648;23.332;2024-01-07T04:33:17;12.03;;;5.43;;
65831;SDS011;52593;42.648;23.332;2024-01-07T04:35:42;13.50;;;5.53;;
65831;SDS011;52593;42.648;23.332;2024-01-07T04:38:07;12.68;;;4.70;;
65831;SDS011;52593;42.648;23.332;2024-01-07T04:40:33;14.43;;;5.23;;
65831;SDS011;52593;42.648;23.332;2024-01-07T04:42:59;12.60;;;5.77;;
65831;SDS011;52593;42.648;23.332;2024-01-07T04:45:25;11.60;;;5.30;;
65831;SDS011;52593;42.648;23.332;2024-01-07T04:47:50;14.13;;;5.38;;
65831;SDS011;52593;42.648;23.332;2024-01-07T04:50:16;14.80;;;5.57;;
65831;SDS011;52593;42.648;23.332;2024-01-07T04:52:45;12.07;;;4.43;;
65831;SDS011;52593;42.648;23.332;2024-01-07T04:55:11;13.48;;;5.22;;
65831;SDS011;52593;42.648;23.332;2024-01-07T04:57:37;15.70;;;5.57;;
65831;SDS011;52593;42.648;23.332;2024-01-07T05:00:02;12.15;;;4.90;;
65831;SDS011;52593;42.648;23.332;2024-01-07T05:02:29;12.70;;;5.07;;
65831;SDS011;52593;42.648;23.332;2024-01-07T05:04:54;13.30;;;5.35;;
65831;SDS011;52593;42.648;23.332;2024-01-07T05:07:20;11.63;;;5.00;;
65831;SDS011;52593;42.648;23.332;2024-01-07T05:09:45;14.95;;;5.13;;
65831;SDS011;52593;42.648;23.332;2024-01-07T05:12:11;18.67;;;6.60;;
65831;SDS011;52593;42.648;23.332;2024-01-07T05:14:36;17.27;;;6.47;;
65831;SDS011;52593;42.648;23.332;2024-01-07T05:17:02;15.15;;;6.28;;
65831;SDS011;52593;42.648;23.332;2024-01-07T05:19:29;15.48;;;6.30;;
65831;SDS011;52593;42.648;23.332;2024-01-07T05:21:54;15.33;;;6.30;;
65831;SDS011;52593;42.648;23.332;2024-01-07T05:24:19;15.00;;;6.17;;
65831;SDS011;52593;42.648;23.332;2024-01-07T05:26:45;15.15;;;6.18;;
65831;SDS011;52593;42.648;23.332;2024-01-07T05:29:10;16.37;;;6.40;;
65831;SDS011;52593;42.648;23.332;2024-01-07T05:31:37;15.75;;;6.80;;
65831;SDS011;52593;42.648;23.332;2024-01-07T05:34:03;16.23;;;6.97;;
65831;SDS011;52593;42.648;23.332;2024-01-07T05:36:29;14.07;;;5.77;;
65831;SDS011;52593;42.648;23.332;2024-01-07T05:38:54;15.13;;;6.53;;
65831;SDS011;52593;42.648;23.332;2024-01-07T05:41:20;16.47;;;6.50;;
65831;SDS011;52593;42.648;23.332;2024-01-07T05:43:45;15.23;;;6.43;;
65831;SDS011;52593;42.648;23.332;2024-01-07T05:46:11;15.77;;;6.30;;
65831;SDS011;52593;42.648;23.332;2024-01-07T05:48:47;14.17;;;6.47;;
65831;SDS011;52593;42.648;23.332;2024-01-07T05:51:14;12.20;;;5.60;;
65831;SDS011;52593;42.648;23.332;2024-01-07T05:53:40;16.02;;;6.55;;
65831;SDS011;52593;42.648;23.332;2024-01-07T05:56:06;15.52;;;6.13;;
65831;SDS011;52593;42.648;23.332;2024-01-07T05:58:32;13.33;;;5.63;;
65831;SDS011;52593;42.648;23.332;2024-01-07T06:00:57;13.35;;;5.80;;
65831;SDS011;52593;42.648;23.332;2024-01-07T06:03:23;15.27;;;6.03;;
65831;SDS011;52593;42.648;23.332;2024-01-07T06:05:49;12.93;;;5.33;;
65831;SDS011;52593;42.648;23.332;2024-01-07T06:08:14;13.50;;;5.70;;
65831;SDS011;52593;42.648;23.332;2024-01-07T06:10:40;12.57;;;5.27;;
65831;SDS011;52593;42.648;23.332;2024-01-07T06:13:06;14.05;;;5.63;;
65831;SDS011;52593;42.648;23.332;2024-01-07T06:15:31;11.77;;;5.07;;
65831;SDS011;52593;42.648;23.332;2024-01-07T06:17:57;12.63;;;5.70;;
65831;SDS011;52593;42.648;23.332;2024-01-07T06:20:23;13.63;;;6.20;;
65831;SDS011;52593;42.648;23.332;2024-01-07T06:22:49;11.98;;;5.50;;
65831;SDS011;52593;42.648;23.332;2024-01-07T06:25:14;15.53;;;6.07;;
65831;SDS011;52593;42.648;23.332;2024-01-07T06:27:40;13.83;;;6.03;;
65831;SDS011;52593;42.648;23.332;2024-01-07T06:30:06;16.15;;;6.53;;
65831;SDS011;52593;42.648;23.332;2024-01-07T06:32:32;15.70;;;6.25;;
65831;SDS011;52593;42.648;23.332;2024-01-07T06:34:58;16.17;;;6.88;;
65831;SDS011;52593;42.648;23.332;2024-01-07T06:37:24;16.40;;;6.93;;
65831;SDS011;52593;42.648;23.332;2024-01-07T06:39:50;14.38;;;7.07;;
65831;SDS011;52593;42.648;23.332;2024-01-07T06:42:16;16.60;;;6.93;;
65831;SDS011;52593;42.648;23.332;2024-01-07T06:44:41;15.67;;;7.10;;
65831;SDS011;52593;42.648;23.332;2024-01-07T06:47:07;15.17;;;7.17;;
65831;SDS011;52593;42.648;23.332;2024-01-07T06:49:32;15.90;;;6.60;;
65831;SDS011;52593;42.648;23.332;2024-01-07T06:51:58;13.83;;;6.37;;
65831;SDS011;52593;42.648;23.332;2024-01-07T06:54:24;15.47;;;6.77;;
65831;SDS011;52593;42.648;23.332;2024-01-07T06:56:50;14.35;;;7.07;;
65831;SDS011;52593;42.648;23.332;2024-01-07T06:59:15;18.60;;;7.80;;
65831;SDS011;52593;42.648;23.332;2024-01-07T07:01:40;14.63;;;6.47;;
65831;SDS011;52593;42.648;23.332;2024-01-07T07:04:06;18.43;;;7.03;;
65831;SDS011;52593;42.648;23.332;2024-01-07T07:06:31;17.77;;;7.60;;
65831;SDS011;52593;42.648;23.332;2024-01-07T07:08:57;15.63;;;7.53;;
65831;SDS011;52593;42.648;23.332;2024-01-07T07:11:22;17.57;;;7.63;;
65831;SDS011;52593;42.648;23.332;2024-01-07T07:13:48;19.27;;;8.33;;
65831;SDS011;52593;42.648;23.332;2024-01-07T07:16:13;17.97;;;7.90;;
65831;SDS011;52593;42.648;23.332;2024-01-07T07:18:39;16.23;;;7.67;;
65831;SDS011;52593;42.648;23.332;2024-01-07T07:21:05;20.40;;;8.10;;
65831;SDS011;52593;42.648;23.332;2024-01-07T07:23:30;16.77;;;7.90;;
65831;SDS011;52593;42.648;23.332;2024-01-07T07:25:56;19.50;;;8.40;;
65831;SDS011;52593;42.648;23.332;2024-01-07T07:28:21;20.30;;;7.63;;
65831;SDS011;52593;42.648;23.332;2024-01-07T07:30:47;16.75;;;7.88;;
65831;SDS011;52593;42.648;23.332;2024-01-07T07:33:12;13.83;;;6.07;;
65831;SDS011;52593;42.648;23.332;2024-01-07T07:35:39;14.65;;;6.75;;
65831;SDS011;52593;42.648;23.332;2024-01-07T07:38:06;16.88;;;6.93;;
65831;SDS011;52593;42.648;23.332;2024-01-07T07:40:32;12.57;;;6.00;;
65831;SDS011;52593;42.648;23.332;2024-01-07T07:42:57;15.50;;;5.87;;
65831;SDS011;52593;42.648;23.332;2024-01-07T07:45:23;16.03;;;5.07;;
65831;SDS011;52593;42.648;23.332;2024-01-07T07:47:48;10.17;;;4.43;;
65831;SDS011;52593;42.648;23.332;2024-01-07T07:50:14;13.77;;;5.30;;
65831;SDS011;52593;42.648;23.332;2024-01-07T07:52:41;11.73;;;4.60;;
65831;SDS011;52593;42.648;23.332;2024-01-07T07:55:08;10.43;;;4.90;;
65831;SDS011;52593;42.648;23.332;2024-01-07T07:57:34;12.18;;;5.15;;
65831;SDS011;52593;42.648;23.332;2024-01-07T08:00:00;11.65;;;5.05;;
65831;SDS011;52593;42.648;23.332;2024-01-07T08:02:26;13.17;;;5.10;;
65831;SDS011;52593;42.648;23.332;2024-01-07T08:04:51;11.82;;;4.65;;
65831;SDS011;52593;42.648;23.332;2024-01-07T08:07:17;12.70;;;5.33;;
65831;SDS011;52593;42.648;23.332;2024-01-07T08:09:43;13.65;;;5.18;;
65831;SDS011;52593;42.648;23.332;2024-01-07T08:12:08;14.50;;;5.63;;
65831;SDS011;52593;42.648;23.332;2024-01-07T08:14:34;15.80;;;6.83;;
65831;SDS011;52593;42.648;23.332;2024-01-07T08:17:00;14.70;;;5.85;;
65831;SDS011;52593;42.648;23.332;2024-01-07T08:19:26;11.82;;;4.30;;
65831;SDS011;52593;42.648;23.332;2024-01-07T08:21:51;9.57;;;4.47;;
65831;SDS011;52593;42.648;23.332;2024-01-07T08:24:18;11.48;;;4.75;;
65831;SDS011;52593;42.648;23.332;2024-01-07T08:26:43;12.55;;;4.32;;
65831;SDS011;52593;42.648;23.332;2024-01-07T08:29:09;12.87;;;4.80;;
65831;SDS011;52593;42.648;23.332;2024-01-07T08:31:34;12.67;;;5.13;;
65831;SDS011;52593;42.648;23.332;2024-01-07T08:34:00;10.90;;;4.85;;
65831;SDS011;52593;42.648;23.332;2024-01-07T08:36:25;11.77;;;5.43;;
65831;SDS011;52593;42.648;23.332;2024-01-07T08:38:51;15.10;;;5.63;;
65831;SDS011;52593;42.648;23.332;2024-01-07T08:41:17;12.43;;;5.27;;
65831;SDS011;52593;42.648;23.332;2024-01-07T08:43:42;17.30;;;4.72;;
65831;SDS011;52593;42.648;23.332;2024-01-07T08:46:09;13.20;;;5.05;;
65831;SDS011;52593;42.648;23.332;2024-01-07T08:48:35;15.40;;;6.50;;
65831;SDS011;52593;42.648;23.332;2024-01-07T08:51:01;12.20;;;4.70;;
65831;SDS011;52593;42.648;23.332;2024-01-07T08:53:27;11.30;;;5.18;;
65831;SDS011;52593;42.648;23.332;2024-01-07T08:55:52;14.97;;;5.13;;
65831;SDS011;52593;42.648;23.332;2024-01-07T08:58:18;15.20;;;6.07;;
65831;SDS011;52593;42.648;23.332;2024-01-07T09:00:43;16.33;;;6.47;;
65831;SDS011;52593;42.648;23.332;2024-01-07T09:03:09;14.73;;;5.87;;
65831;SDS011;52593;42.648;23.332;2024-01-07T09:05:35;13.65;;;5.70;;
65831;SDS011;52593;42.648;23.332;2024-01-07T09:08:01;13.43;;;6.10;;
65831;SDS011;52593;42.648;23.332;2024-01-07T09:10:27;16.00;;;6.37;;
65831;SDS011;52593;42.648;23.332;2024-01-07T09:12:52;15.00;;;6.22;;
65831;SDS011;52593;42.648;23.332;2024-01-07T09:15:18;16.05;;;6.90;;
65831;SDS011;52593;42.648;23.332;2024-01-07T09:17:45;18.60;;;7.47;;
65831;SDS011;52593;42.648;23.332;2024-01-07T09:20:11;17.50;;;7.20;;
65831;SDS011;52593;42.648;23.332;2024-01-07T09:22:37;12.30;;;5.72;;
65831;SDS011;52593;42.648;23.332;2024-01-07T09:25:02;13.87;;;5.67;;
65831;SDS011;52593;42.648;23.332;2024-01-07T09:27:29;17.25;;;7.28;;
65831;SDS011;52593;42.648;23.332;2024-01-07T09:29:55;13.70;;;6.35;;
65831;SDS011;52593;42.648;23.332;2024-01-07T09:32:20;16.50;;;7.10;;
65831;SDS011;52593;42.648;23.332;2024-01-07T09:34:46;12.80;;;6.20;;
65831;SDS011;52593;42.648;23.332;2024-01-07T09:37:11;14.48;;;5.68;;
65831;SDS011;52593;42.648;23.332;2024-01-07T09:39:40;12.33;;;5.57;;
65831;SDS011;52593;42.648;23.332;2024-01-07T09:42:16;14.45;;;5.35;;
65831;SDS011;52593;42.648;23.332;2024-01-07T09:44:44;10.05;;;4.20;;
65831;SDS011;52593;42.648;23.332;2024-01-07T09:47:10;11.33;;;4.67;;
65831;SDS011;52593;42.648;23.332;2024-01-07T09:49:39;11.27;;;4.40;;
65831;SDS011;52593;42.648;23.332;2024-01-07T09:52:06;10.85;;;4.78;;
65831;SDS011;52593;42.648;23.332;2024-01-07T09:54:33;12.32;;;4.47;;
65831;SDS011;52593;42.648;23.332;2024-01-07T09:57:02;9.97;;;4.40;;
65831;SDS011;52593;42.648;23.332;2024-01-07T09:59:28;11.57;;;4.32;;
65831;SDS011;52593;42.648;23.332;2024-01-07T10:01:54;14.73;;;4.38;;
65831;SDS011;52593;42.648;23.332;2024-01-07T10:04:20;9.35;;;4.45;;
65831;SDS011;52593;42.648;23.332;2024-01-07T10:06:46;13.50;;;4.93;;
65831;SDS011;52593;42.648;23.332;2024-01-07T10:09:13;12.77;;;4.83;;
65831;SDS011;52593;42.648;23.332;2024-01-07T10:11:40;12.57;;;5.25;;
65831;SDS011;52593;42.648;23.332;2024-01-07T10:14:06;11.77;;;5.57;;
65831;SDS011;52593;42.648;23.332;2024-01-07T10:16:31;11.68;;;4.78;;
65831;SDS011;52593;42.648;23.332;2024-01-07T10:18:58;11.55;;;5.32;;
65831;SDS011;52593;42.648;23.332;2024-01-07T10:21:24;10.30;;;4.83;;
65831;SDS011;52593;42.648;23.332;2024-01-07T10:23:49;9.50;;;3.95;;
65831;SDS011;52593;42.648;23.332;2024-01-07T10:26:15;9.07;;;3.50;;
65831;SDS011;52593;42.648;23.332;2024-01-07T10:28:41;10.43;;;4.22;;
65831;SDS011;52593;42.648;23.332;2024-01-07T10:31:08;9.50;;;4.32;;
65831;SDS011;52593;42.648;23.332;2024-01-07T10:33:34;14.47;;;5.90;;
65831;SDS011;52593;42.648;23.332;2024-01-07T10:36:05;13.98;;;5.10;;
65831;SDS011;52593;42.648;23.332;2024-01-07T10:38:31;12.43;;;5.40;;
65831;SDS011;52593;42.648;23.332;2024-01-07T10:40:59;13.33;;;5.20;;
65831;SDS011;52593;42.648;23.332;2024-01-07T10:43:26;15.73;;;5.57;;
65831;SDS011;52593;42.648;23.332;2024-01-07T10:45:54;11.68;;;4.75;;
65831;SDS011;52593;42.648;23.332;2024-01-07T10:48:20;12.85;;;4.32;;
65831;SDS011;52593;42.648;23.332;2024-01-07T10:50:49;14.73;;;4.70;;
65831;SDS011;52593;42.648;23.332;2024-01-07T10:53:21;10.35;;;3.80;;
65831;SDS011;52593;42.648;23.332;2024-01-07T10:55:52;13.20;;;4.00;;
65831;SDS011;52593;42.648;23.332;2024-01-07T10:58:20;12.10;;;4.10;;
65831;SDS011;52593;42.648;23.332;2024-01-07T11:00:46;12.18;;;5.07;;
65831;SDS011;52593;42.648;23.332;2024-01-07T11:11:46;11.57;;;4.50;;
65831;SDS011;52593;42.648;23.332;2024-01-07T11:17:01;11.43;;;4.90;;
65831;SDS011;52593;42.648;23.332;2024-01-07T11:19:28;9.80;;;3.90;;
65831;SDS011;52593;42.648;23.332;2024-01-07T11:22:04;10.93;;;4.63;;
65831;SDS011;52593;42.648;23.332;2024-01-07T11:25:00;13.05;;;4.40;;
65831;SDS011;52593;42.648;23.332;2024-01-07T11:27:31;11.32;;;4.13;;
65831;SDS011;52593;42.648;23.332;2024-01-07T11:30:05;9.63;;;4.07;;
65831;SDS011;52593;42.648;23.332;2024-01-07T11:32:44;12.27;;;4.57;;
65831;SDS011;52593;42.648;23.332;2024-01-07T11:35:12;15.20;;;5.97;;
65831;SDS011;52593;42.648;23.332;2024-01-07T11:37:38;13.98;;;5.82;;
65831;SDS011;52593;42.648;23.332;2024-01-07T11:40:04;11.83;;;4.47;;
65831;SDS011;52593;42.648;23.332;2024-01-07T11:42:31;10.27;;;4.25;;
65831;SDS011;52593;42.648;23.332;2024-01-07T11:44:57;10.10;;;4.20;;
65831;SDS011;52593;42.648;23.332;2024-01-07T11:47:23;11.97;;;4.67;;
65831;SDS011;52593;42.648;23.332;2024-01-07T11:49:50;14.25;;;5.25;;
65831;SDS011;52593;42.648;23.332;2024-01-07T11:52:16;17.95;;;7.38;;
65831;SDS011;52593;42.648;23.332;2024-01-07T11:54:42;53.30;;;26.43;;
65831;SDS011;52593;42.648;23.332;2024-01-07T11:57:08;32.07;;;15.83;;
65831;SDS011;52593;42.648;23.332;2024-01-07T11:59:35;20.98;;;8.88;;
65831;SDS011;52593;42.648;23.332;2024-01-07T12:02:01;20.27;;;8.07;;
65831;SDS011;52593;42.648;23.332;2024-01-07T12:04:30;13.20;;;5.50;;
65831;SDS011;52593;42.648;23.332;2024-01-07T12:06:56;14.23;;;5.20;;
65831;SDS011;52593;42.648;23.332;2024-01-07T12:09:21;16.50;;;5.63;;
65831;SDS011;52593;42.648;23.332;2024-01-07T12:11:47;14.60;;;5.38;;
65831;SDS011;52593;42.648;23.332;2024-01-07T12:14:13;14.53;;;5.87;;
65831;SDS011;52593;42.648;23.332;2024-01-07T12:16:39;12.02;;;4.70;;
65831;SDS011;52593;42.648;23.332;2024-01-07T12:19:05;17.02;;;7.15;;
65831;SDS011;52593;42.648;23.332;2024-01-07T12:21:30;18.57;;;8.63;;
65831;SDS011;52593;42.648;23.332;2024-01-07T12:23:56;11.67;;;4.97;;
65831;SDS011;52593;42.648;23.332;2024-01-07T12:26:29;12.77;;;5.35;;
65831;SDS011;52593;42.648;23.332;2024-01-07T12:28:56;12.90;;;5.40;;
65831;SDS011;52593;42.648;23.332;2024-01-07T12:31:27;12.48;;;5.85;;
65831;SDS011;52593;42.648;23.332;2024-01-07T12:33:53;11.13;;;4.72;;
65831;SDS011;52593;42.648;23.332;2024-01-07T12:36:22;8.77;;;4.03;;
65831;SDS011;52593;42.648;23.332;2024-01-07T12:38:48;10.05;;;4.00;;
65831;SDS011;52593;42.648;23.332;2024-01-07T12:41:16;12.95;;;5.00;;
65831;SDS011;52593;42.648;23.332;2024-01-07T12:43:42;10.23;;;4.50;;
65831;SDS011;52593;42.648;23.332;2024-01-07T12:46:08;15.17;;;4.50;;
65831;SDS011;52593;42.648;23.332;2024-01-07T12:48:33;10.67;;;4.27;;
65831;SDS011;52593;42.648;23.332;2024-01-07T12:50:59;11.68;;;4.07;;
65831;SDS011;52593;42.648;23.332;2024-01-07T12:53:25;10.52;;;4.15;;
65831;SDS011;52593;42.648;23.332;2024-01-07T12:55:52;20.33;;;8.77;;
65831;SDS011;52593;42.648;23.332;2024-01-07T12:58:18;32.50;;;17.83;;
65831;SDS011;52593;42.648;23.332;2024-01-07T13:00:43;24.03;;;13.43;;
65831;SDS011;52593;42.648;23.332;2024-01-07T13:03:09;15.55;;;7.10;;
65831;SDS011;52593;42.648;23.332;2024-01-07T13:05:44;12.57;;;5.70;;
65831;SDS011;52593;42.648;23.332;2024-01-07T13:08:11;10.43;;;5.25;;
65831;SDS011;52593;42.648;23.332;2024-01-07T13:10:38;11.02;;;4.45;;
65831;SDS011;52593;42.648;23.332;2024-01-07T13:13:03;10.77;;;4.67;;
65831;SDS011;52593;42.648;23.332;2024-01-07T13:15:29;10.77;;;4.00;;
65831;SDS011;52593;42.648;23.332;2024-01-07T13:17:54;9.63;;;4.20;;
65831;SDS011;52593;42.648;23.332;2024-01-07T13:20:20;12.00;;;4.77;;
65831;SDS011;52593;42.648;23.332;2024-01-07T13:22:45;10.02;;;3.90;;
65831;SDS011;52593;42.648;23.332;2024-01-07T13:25:11;11.33;;;4.17;;
65831;SDS011;52593;42.648;23.332;2024-01-07T13:27:37;11.85;;;4.40;;
65831;SDS011;52593;42.648;23.332;2024-01-07T13:30:03;9.03;;;3.80;;
65831;SDS011;52593;42.648;23.332;2024-01-07T13:32:29;8.30;;;3.58;;
65831;SDS011;52593;42.648;23.332;2024-01-07T13:34:55;11.95;;;4.15;;
65831;SDS011;52593;42.648;23.332;2024-01-07T13:37:20;13.00;;;4.93;;
65831;SDS011;52593;42.648;23.332;2024-01-07T13:39:45;48.63;;;15.70;;
65831;SDS011;52593;42.648;23.332;2024-01-07T13:42:11;22.13;;;9.20;;
65831;SDS011;52593;42.648;23.332;2024-01-07T13:44:37;40.72;;;18.13;;
65831;SDS011;52593;42.648;23.332;2024-01-07T13:47:11;17.80;;;9.18;;
65831;SDS011;52593;42.648;23.332;2024-01-07T13:49:39;13.30;;;5.70;;
65831;SDS011;52593;42.648;23.332;2024-01-07T13:52:05;13.90;;;6.97;;
65831;SDS011;52593;42.648;23.332;2024-01-07T13:54:30;9.73;;;4.30;;
65831;SDS011;52593;42.648;23.332;2024-01-07T13:56:55;8.40;;;3.30;;
65831;SDS011;52593;42.648;23.332;2024-01-07T13:59:21;10.20;;;4.13;;
65831;SDS011;52593;42.648;23.332;2024-01-07T14:01:48;8.50;;;3.33;;
65831;SDS011;52593;42.648;23.332;2024-01-07T14:04:14;7.70;;;2.88;;
65831;SDS011;52593;42.648;23.332;2024-01-07T14:06:40;8.23;;;3.10;;
65831;SDS011;52593;42.648;23.332;2024-01-07T14:09:05;7.40;;;2.73;;
65831;SDS011;52593;42.648;23.332;2024-01-07T14:11:33;8.18;;;3.10;;
65831;SDS011;52593;42.648;23.332;2024-01-07T14:13:59;7.67;;;3.03;;
65831;SDS011;52593;42.648;23.332;2024-01-07T14:16:26;8.23;;;3.22;;
65831;SDS011;52593;42.648;23.332;2024-01-07T14:18:51;8.63;;;3.03;;
65831;SDS011;52593;42.648;23.332;2024-01-07T14:21:17;7.60;;;2.80;;
65831;SDS011;52593;42.648;23.332;2024-01-07T14:23:43;8.60;;;3.23;;
65831;SDS011;52593;42.648;23.332;2024-01-07T14:26:08;8.07;;;3.00;;
65831;SDS011;52593;42.648;23.332;2024-01-07T14:28:34;9.70;;;3.53;;